Time;durP1;ratioP1;P1;durP2;ratioP2;P2;SDS_P1;SDS_P2;PMS_P1;PMS_P2;Temp;Humidity;BMP_temperature;BMP_pressure;BME280_temperature;BME280_humidity;BME280_pressure;Samples;Min_cycle;Max_cycle;Signal;HPM_P1;HPM_P2
2023/03/02 00:01:11;;;;;;;12.40;7.00;;;;;;;0.16;78.21;99756.77;80764;1295;3050407;-70
2023/03/02 00:03:39;;;;;;;16.20;7.50;;;;;;;0.11;78.33;99764.27;82076;1295;3012732;-66
2023/03/02 00:06:06;;;;;;;15.30;7.30;;;;;;;0.14;78.17;99755.08;82050;1295;3011228;-66
2023/03/02 00:08:34;;;;;;;13.20;6.30;;;;;;;0.11;77.79;99759.42;80773;1298;3051161;-69
2023/03/02 00:11:01;;;;;;;15.60;6.80;;;;;;;0.09;77.85;99763.59;82135;1293;3013051;-69
2023/03/02 00:13:30;;;;;;;14.90;7.10;;;;;;;-0.11;78.46;99759.19;82120;1294;3011278;-65
2023/03/02 00:15:58;;;;;;;13.00;6.80;;;;;;;-0.14;78.98;99752.86;80720;1295;3049528;-67
2023/03/02 00:18:25;;;;;;;14.90;7.80;;;;;;;-0.18;78.81;99754.80;82132;1295;3013000;-67
2023/03/02 00:20:51;;;;;;;10.90;5.60;;;;;;;-0.19;79.13;99754.65;82029;1295;3011278;-66
2023/03/02 00:23:20;;;;;;;8.20;5.10;;;;;;;0.40;78.30;99751.27;80835;1295;3026972;-65
2023/03/02 00:25:46;;;;;;;10.20;5.00;;;;;;;0.87;76.08;99754.02;82074;1301;3012792;-63
2023/03/02 00:28:13;;;;;;;12.00;6.40;;;;;;;0.91;75.51;99753.42;82045;1295;3011155;-67
2023/03/02 00:30:41;;;;;;;11.00;6.20;;;;;;;0.83;75.57;99751.16;80786;1295;3026734;-68
2023/03/02 00:33:08;;;;;;;11.10;6.30;;;;;;;0.69;75.65;99754.82;82077;1295;3012484;-68
2023/03/02 00:35:38;;;;;;;11.20;5.70;;;;;;;0.50;75.62;99759.24;82056;1295;3011226;-69
2023/03/02 00:38:07;;;;;;;13.00;5.90;;;;;;;0.25;76.34;99755.10;80785;1295;3051353;-66
2023/03/02 00:40:34;;;;;;;12.30;6.00;;;;;;;0.21;76.65;99757.06;82077;1295;3011045;-69
2023/03/02 00:43:07;;;;;;;14.60;6.80;;;;;;;0.04;76.45;99754.52;80705;1295;3057701;-71
2023/03/02 00:46:52;;;;;;;12.00;5.60;;;;;;;0.11;76.48;99753.58;79932;1303;3013719;-66
2023/03/02 00:49:20;;;;;;;8.70;5.40;;;;;;;0.05;76.80;99758.31;78975;1305;3013344;-63
2023/03/02 00:51:50;;;;;;;11.20;6.20;;;;;;;-0.05;76.54;99761.54;78307;1307;3012110;-67
2023/03/02 00:54:17;;;;;;;11.80;6.10;;;;;;;-0.16;76.83;99763.23;78813;1306;3019166;-65
2023/03/02 00:56:44;;;;;;;11.50;6.40;;;;;;;-0.23;77.62;99764.34;78793;1306;3013224;-65
2023/03/02 00:59:25;;;;;;;11.70;5.70;;;;;;;-0.31;78.26;99768.73;76222;1305;3050159;-66
2023/03/02 01:01:58;;;;;;;13.40;6.30;;;;;;;-0.44;78.24;99767.49;77919;1302;3058061;-64
2023/03/02 01:04:46;;;;;;;10.20;5.50;;;;;;;-0.50;78.73;99771.70;79265;1302;3013177;-64
2023/03/02 01:07:17;;;;;;;10.00;5.60;;;;;;;-0.61;79.31;99771.29;78160;1300;3054577;-67
2023/03/02 01:09:44;;;;;;;10.70;6.20;;;;;;;-0.62;79.18;99771.99;79227;1298;3011623;-65
2023/03/02 01:12:14;;;;;;;12.50;6.40;;;;;;;-0.64;79.00;99769.08;78741;1301;3013295;-62
2023/03/02 01:14:43;;;;;;;11.60;5.70;;;;;;;-0.72;78.62;99771.39;79182;1309;3013963;-63
2023/03/02 01:17:09;;;;;;;6.70;3.90;;;;;;;-0.73;78.71;99775.35;79202;1299;3011582;-66
2023/03/02 01:19:38;;;;;;;7.70;4.00;;;;;;;-0.06;77.78;99774.61;78020;1307;3057149;-62
2023/03/02 01:22:06;;;;;;;8.60;4.10;;;;;;;0.60;75.00;99767.36;79221;1304;3013049;-62
2023/03/02 01:24:34;;;;;;;9.00;5.10;;;;;;;0.82;73.73;99771.16;79250;1300;3013637;-62
2023/03/02 01:27:02;;;;;;;8.80;5.00;;;;;;;0.67;73.90;99765.19;77995;1301;3053154;-62
2023/03/02 01:29:29;;;;;;;11.80;5.80;;;;;;;0.25;74.68;99764.24;79151;1300;3013387;-64
2023/03/02 01:31:56;;;;;;;10.10;5.30;;;;;;;0.12;75.03;99765.95;79283;1300;3011374;-63
2023/03/02 01:34:24;;;;;;;11.10;6.60;;;;;;;-0.09;75.98;99768.13;78114;1301;3029131;-67
2023/03/02 01:36:52;;;;;;;10.10;5.80;;;;;;;-0.22;76.34;99758.29;79136;1296;3011865;-65
2023/03/02 01:39:22;;;;;;;11.00;6.50;;;;;;;-0.34;76.65;99763.27;78758;1298;3012206;-62
2023/03/02 01:41:50;;;;;;;12.30;6.90;;;;;;;-0.63;77.66;99762.38;79336;1301;3012958;-65
2023/03/02 01:44:36;;;;;;;11.70;5.80;;;;;;;-0.62;78.28;99757.88;79190;1300;3011673;-65
2023/03/02 01:47:12;;;;;;;13.80;6.70;;;;;;;-0.68;78.23;99756.56;78015;1301;3070575;-63
2023/03/02 01:49:46;;;;;;;9.30;5.00;;;;;;;-0.77;78.52;99756.13;77969;1302;3050151;-65
2023/03/02 01:52:17;;;;;;;14.90;7.30;;;;;;;-0.77;78.61;99759.41;78730;1296;3013009;-63
2023/03/02 01:54:48;;;;;;;10.80;5.60;;;;;;;-0.83;78.24;99757.39;79173;1296;3013539;-64
2023/03/02 01:57:22;;;;;;;15.10;6.50;;;;;;;-0.95;79.09;99759.55;77848;1304;3053864;-66
2023/03/02 01:59:49;;;;;;;14.80;6.80;;;;;;;-0.95;79.30;99755.95;79142;1301;3011778;-64
2023/03/02 02:02:17;;;;;;;16.10;7.10;;;;;;;-0.98;79.15;99758.89;78132;1314;3052280;-63
2023/03/02 02:04:44;;;;;;;10.60;6.50;;;;;;;-1.00;79.45;99754.80;79061;1302;3011786;-65
2023/03/02 02:07:11;;;;;;;13.40;4.80;;;;;;;-0.90;79.19;99755.73;78956;1303;3011637;-62
2023/03/02 02:09:44;;;;;;;10.30;5.50;;;;;;;-0.21;78.08;99751.04;77992;1301;3057319;-64
2023/03/02 02:12:13;;;;;;;9.70;6.40;;;;;;;0.34;75.40;99755.86;79200;1296;3013751;-64
2023/03/02 02:14:41;;;;;;;21.10;7.20;;;;;;;0.39;74.73;99754.57;78038;1300;3052895;-65
2023/03/02 02:17:11;;;;;;;13.90;6.70;;;;;;;0.26;74.25;99752.86;79235;1303;3011593;-65
2023/03/02 02:20:06;;;;;;;16.00;6.70;;;;;;;0.06;74.49;99752.79;77995;1302;3052606;-62
2023/03/02 02:22:37;;;;;;;12.50;6.40;;;;;;;-0.12;74.95;99751.12;78120;1308;3051950;-63
2023/03/02 02:25:08;;;;;;;16.40;7.10;;;;;;;-0.23;75.35;99751.59;79228;1301;3013502;-66
2023/03/02 02:27:38;;;;;;;15.20;7.50;;;;;;;-0.46;75.78;99755.80;77800;1303;3051073;-62
2023/03/02 02:30:06;;;;;;;16.70;7.30;;;;;;;-0.52;75.75;99753.81;79253;1301;3013256;-65
2023/03/02 02:32:34;;;;;;;13.50;6.70;;;;;;;-0.60;76.09;99753.21;79229;1296;3011707;-65
2023/03/02 02:35:13;;;;;;;16.30;7.50;;;;;;;-0.65;76.07;99749.48;78030;1308;3051724;-68
2023/03/02 02:37:45;;;;;;;15.00;7.60;;;;;;;-0.67;76.18;99749.50;77851;1303;3052759;-62
2023/03/02 02:40:16;;;;;;;10.70;6.20;;;;;;;-0.75;76.47;99751.63;79228;1302;3011683;-63
2023/03/02 02:42:46;;;;;;;18.30;7.50;;;;;;;-0.73;76.18;99751.27;77921;1302;3068524;-66
2023/03/02 02:45:23;;;;;;;17.90;7.70;;;;;;;-0.85;76.57;99757.40;79318;1296;3012919;-67
2023/03/02 02:47:51;;;;;;;14.80;7.20;;;;;;;-0.83;76.69;99759.29;78006;1302;3057435;-65
2023/03/02 02:50:21;;;;;;;15.60;7.40;;;;;;;-0.95;76.85;99758.19;79282;1295;3012898;-64
2023/03/02 02:53:03;;;;;;;13.50;7.40;;;;;;;-0.95;77.28;99756.14;78824;1308;3013051;-62
2023/03/02 02:55:32;;;;;;;16.10;7.50;;;;;;;-0.98;77.16;99757.86;78078;1300;3050101;-66
2023/03/02 02:58:01;;;;;;;16.20;7.90;;;;;;;-1.04;77.44;99760.33;79325;1299;3013650;-63
2023/03/02 03:00:32;;;;;;;16.50;7.30;;;;;;;-1.00;77.51;99759.45;78041;1298;3069120;-62
2023/03/02 03:03:29;;;;;;;17.30;7.90;;;;;;;-1.00;77.15;99760.11;79006;1298;3012650;-65
2023/03/02 03:06:06;;;;;;;13.30;7.20;;;;;;;-0.99;77.19;99757.37;77857;1301;3050305;-65
2023/03/02 03:08:43;;;;;;;19.00;8.90;;;;;;;-1.04;77.37;99767.38;79221;1302;3013165;-66
2023/03/02 03:11:13;;;;;;;13.30;6.70;;;;;;;-1.05;77.56;99767.05;78103;1300;3051173;-66
2023/03/02 03:13:41;;;;;;;21.80;8.80;;;;;;;-1.12;77.80;99763.14;79311;1301;3011535;-69
2023/03/02 03:16:12;;;;;;;16.10;6.40;;;;;;;-1.10;78.47;99764.50;78608;1304;3011938;-66
2023/03/02 03:18:44;;;;;;;18.10;6.70;;;;;;;-0.39;77.01;99761.40;79228;1301;3011638;-67
2023/03/02 03:21:12;;;;;;;14.20;7.20;;;;;;;0.14;74.44;99759.58;78168;1300;3052229;-65
2023/03/02 03:23:39;;;;;;;16.60;8.10;;;;;;;0.23;73.83;99758.41;79266;1300;3013494;-64
2023/03/02 03:26:06;;;;;;;21.30;9.00;;;;;;;0.14;73.92;99762.31;79252;1300;3011792;-63
2023/03/02 03:28:34;;;;;;;20.60;8.80;;;;;;;-0.13;74.72;99761.45;78026;1300;3029198;-63
2023/03/02 03:31:02;;;;;;;22.00;9.50;;;;;;;-0.08;74.67;99760.70;79263;1299;3013049;-65
2023/03/02 03:33:32;;;;;;;23.70;9.50;;;;;;;-0.42;74.73;99766.44;78786;1300;3011626;-63
2023/03/02 03:36:00;;;;;;;25.40;8.60;;;;;;;-0.64;75.72;99767.02;79335;1295;3014811;-66
2023/03/02 03:38:27;;;;;;;24.80;9.40;;;;;;;-0.75;76.08;99764.02;79225;1299;3011774;-65
2023/03/02 03:40:55;;;;;;;17.80;8.20;;;;;;;-0.82;76.16;99768.21;78062;1300;3050153;-64
2023/03/02 03:43:22;;;;;;;22.00;8.30;;;;;;;-0.81;76.12;99769.95;79207;1298;3013125;-65
2023/03/02 03:45:55;;;;;;;18.70;8.20;;;;;;;-0.85;76.16;99770.48;78035;1299;3053637;-65
2023/03/02 03:48:22;;;;;;;18.50;8.80;;;;;;;-0.96;76.55;99770.06;79285;1300;3014044;-66
2023/03/02 03:50:49;;;;;;;16.70;8.90;;;;;;;-1.10;77.17;99773.63;79294;1300;3011505;-66
2023/03/02 03:53:18;;;;;;;14.60;7.60;;;;;;;-1.16;77.17;99770.58;78115;1296;3058642;-63
2023/03/02 03:55:45;;;;;;;16.30;7.60;;;;;;;-1.14;76.43;99770.21;79349;1297;3018223;-65
2023/03/02 03:58:14;;;;;;;16.00;7.80;;;;;;;-1.15;76.46;99769.89;79275;1301;3011901;-67
2023/03/02 04:00:42;;;;;;;17.70;7.40;;;;;;;-1.23;76.71;99766.69;78086;1308;3052850;-67
2023/03/02 04:03:09;;;;;;;14.10;7.80;;;;;;;-1.26;77.06;99766.34;79354;1300;3012989;-67
2023/03/02 04:05:41;;;;;;;15.70;8.30;;;;;;;-1.26;77.13;99767.20;78776;1296;3011724;-69
2023/03/02 04:08:08;;;;;;;16.70;8.30;;;;;;;-1.40;77.35;99768.70;79301;1300;3018827;-68
2023/03/02 04:10:35;;;;;;;13.60;7.10;;;;;;;-1.39;77.33;99769.20;79271;1296;3011385;-66
2023/03/02 04:13:04;;;;;;;13.60;6.80;;;;;;;-1.32;76.67;99767.77;78047;1296;3053821;-68
2023/03/02 04:15:33;;;;;;;13.30;7.20;;;;;;;-1.29;76.55;99767.41;79294;1301;3012811;-65
2023/03/02 04:18:00;;;;;;;16.50;8.20;;;;;;;-1.30;76.35;99769.64;79294;1298;3012156;-63
2023/03/02 04:20:28;;;;;;;16.20;7.70;;;;;;;-1.32;76.32;99772.94;78029;1298;3067794;-69
2023/03/02 04:22:56;;;;;;;18.50;9.00;;;;;;;-1.38;76.40;99774.52;79344;1296;3013819;-67
2023/03/02 04:25:28;;;;;;;9.90;4.70;;;;;;;-1.38;76.55;99772.63;79259;1297;3011570;-67
2023/03/02 04:28:01;;;;;;;12.20;5.70;;;;;;;-0.67;74.76;99770.81;77974;1300;3055181;-67
2023/03/02 04:30:32;;;;;;;16.90;6.00;;;;;;;0.24;72.19;99763.91;79329;1300;3013486;-65
2023/03/02 04:33:00;;;;;;;13.30;5.60;;;;;;;0.32;70.97;99760.34;78002;1300;3029500;-63
2023/03/02 04:35:28;;;;;;;18.70;6.70;;;;;;;0.19;70.37;99758.98;79267;1297;3012975;-65
2023/03/02 04:37:55;;;;;;;15.10;6.70;;;;;;;-0.01;70.74;99761.98;79265;1298;3013901;-66
2023/03/02 04:40:23;;;;;;;15.70;7.00;;;;;;;-0.33;70.94;99768.06;78044;1297;3058560;-65
2023/03/02 04:42:51;;;;;;;13.60;7.30;;;;;;;-0.28;71.31;99768.87;79213;1298;3015408;-66
2023/03/02 04:45:18;;;;;;;17.30;8.20;;;;;;;-0.55;71.32;99769.49;79229;1298;3011655;-61
2023/03/02 04:47:46;;;;;;;16.30;8.60;;;;;;;-0.69;71.69;99770.16;78151;1298;3052908;-68
2023/03/02 04:50:14;;;;;;;19.10;8.80;;;;;;;-0.71;72.14;99770.34;79608;1300;3013357;-66
2023/03/02 04:52:41;;;;;;;21.30;9.30;;;;;;;-0.77;71.87;99777.12;79216;1297;3011632;-68
2023/03/02 04:55:15;;;;;;;20.30;10.30;;;;;;;-0.78;71.93;99776.08;78049;1300;3056109;-65
2023/03/02 04:57:41;;;;;;;24.70;11.50;;;;;;;-0.83;71.58;99774.59;79275;1296;3011583;-66
2023/03/02 05:00:11;;;;;;;30.20;13.90;;;;;;;-0.88;72.19;99769.13;77979;1300;3054418;-66
2023/03/02 05:02:39;;;;;;;34.40;13.60;;;;;;;-0.95;71.98;99770.91;79272;1300;3011516;-62
2023/03/02 05:05:15;;;;;;;20.20;9.20;;;;;;;-0.97;72.16;99770.76;78071;1300;3026762;-66
2023/03/02 05:07:44;;;;;;;28.10;11.50;;;;;;;-0.88;71.78;99770.67;78578;1300;3011879;-68
2023/03/02 05:10:12;;;;;;;33.30;14.70;;;;;;;-0.86;71.48;99769.80;79199;1300;3013809;-65
2023/03/02 05:12:53;;;;;;;27.80;12.30;;;;;;;-1.05;71.66;99766.20;79209;1300;3013254;-65
2023/03/02 05:15:22;;;;;;;29.10;12.60;;;;;;;-0.94;71.64;99770.39;78046;1297;3057886;-65
2023/03/02 05:17:49;;;;;;;32.60;15.00;;;;;;;-0.86;71.04;99768.25;79324;1298;3013745;-65
2023/03/02 05:20:16;;;;;;;35.50;14.90;;;;;;;-0.92;71.06;99768.66;79267;1298;3011665;-63
2023/03/02 05:22:45;;;;;;;28.80;14.20;;;;;;;-0.88;70.83;99776.70;78014;1300;3053582;-68
2023/03/02 05:25:11;;;;;;;40.10;16.90;;;;;;;-0.93;70.71;99774.52;79221;1300;3013624;-64
2023/03/02 05:27:38;;;;;;;44.10;16.40;;;;;;;-0.91;71.19;99776.73;79210;1300;3011873;-65
2023/03/02 05:30:09;;;;;;;34.90;15.50;;;;;;;-0.81;70.97;99781.98;77966;1300;3029786;-63
2023/03/02 05:32:36;;;;;;;37.60;15.90;;;;;;;-0.72;70.79;99788.59;79263;1296;3012269;-64
2023/03/02 05:35:04;;;;;;;52.90;17.90;;;;;;;-0.74;70.73;99787.77;78016;1300;3029209;-67
2023/03/02 05:37:31;;;;;;;41.10;16.30;;;;;;;-0.77;70.57;99793.98;79263;1297;3013933;-64
2023/03/02 05:39:58;;;;;;;30.50;14.80;;;;;;;-0.68;69.75;99798.36;79340;1300;3012188;-65
2023/03/02 05:42:26;;;;;;;33.80;14.90;;;;;;;-0.67;69.36;99798.35;78179;1297;3070880;-64
2023/03/02 05:44:53;;;;;;;32.90;13.90;;;;;;;-0.59;69.25;99801.02;79368;1296;3013615;-65
2023/03/02 05:47:20;;;;;;;36.80;14.10;;;;;;;-0.50;67.94;99800.25;79295;1299;3013534;-66
2023/03/02 05:49:47;;;;;;;31.40;11.80;;;;;;;-0.40;68.16;99802.22;77994;1299;3024996;-68
2023/03/02 05:52:14;;;;;;;26.80;13.50;;;;;;;-0.31;67.27;99809.35;79332;1298;3018727;-63
2023/03/02 05:54:41;;;;;;;24.60;12.30;;;;;;;-0.25;66.66;99803.44;79205;1299;3013232;-63
2023/03/02 05:57:14;;;;;;;27.10;11.10;;;;;;;-0.15;65.49;99796.96;78026;1298;3069904;-62
2023/03/02 05:59:41;;;;;;;29.70;10.90;;;;;;;-0.10;65.11;99798.63;79297;1295;3020369;-67
2023/03/02 06:02:07;;;;;;;25.40;11.10;;;;;;;-0.09;64.86;99797.23;79227;1300;3012855;-65
2023/03/02 06:04:41;;;;;;;24.50;10.80;;;;;;;0.16;65.04;99802.09;78038;1299;3028656;-65
2023/03/02 06:07:10;;;;;;;26.40;9.20;;;;;;;0.25;64.39;99806.64;79205;1300;3011610;-61
2023/03/02 06:09:39;;;;;;;23.60;10.10;;;;;;;0.26;63.90;99812.99;77954;1300;3052774;-67
2023/03/02 06:12:06;;;;;;;27.40;10.30;;;;;;;0.21;63.71;99818.05;79185;1300;3013481;-64
2023/03/02 06:14:33;;;;;;;23.60;9.70;;;;;;;0.26;63.57;99821.60;79158;1300;3011527;-67
2023/03/02 06:17:02;;;;;;;20.80;9.30;;;;;;;0.43;63.24;99825.52;78138;1299;3057335;-65
2023/03/02 06:19:29;;;;;;;15.70;8.30;;;;;;;0.39;63.08;99822.64;79126;1295;3013075;-66
2023/03/02 06:21:56;;;;;;;19.20;8.20;;;;;;;0.60;62.29;99824.27;79217;1298;3013558;-63
2023/03/02 06:24:24;;;;;;;25.10;9.20;;;;;;;0.56;61.78;99826.55;78188;1296;3028430;-68
2023/03/02 06:26:54;;;;;;;20.30;9.20;;;;;;;0.60;61.39;99823.55;79228;1297;3013373;-61
2023/03/02 06:29:23;;;;;;;18.30;7.70;;;;;;;0.63;61.62;99831.27;78659;1296;3013486;-64
2023/03/02 06:31:50;;;;;;;20.90;7.60;;;;;;;0.74;60.96;99831.13;79365;1298;3012907;-62
2023/03/02 06:34:17;;;;;;;20.70;8.50;;;;;;;0.78;60.38;99835.02;79231;1300;3012184;-62
2023/03/02 06:36:44;;;;;;;19.90;8.10;;;;;;;0.76;59.87;99830.92;78044;1294;3029006;-66
2023/03/02 06:39:14;;;;;;;20.10;7.80;;;;;;;0.87;60.03;99834.55;79339;1299;3011599;-67
2023/03/02 06:41:44;;;;;;;18.80;7.40;;;;;;;0.98;59.99;99834.05;78863;1298;3011516;-64
2023/03/02 06:44:12;;;;;;;14.60;6.50;;;;;;;1.15;59.73;99835.14;79310;1299;3013796;-62
2023/03/02 06:46:43;;;;;;;16.00;6.90;;;;;;;1.30;58.84;99832.67;78920;1295;3011701;-65
2023/03/02 06:49:09;;;;;;;14.30;6.80;;;;;;;1.40;58.06;99837.16;79259;1298;3013427;-66
2023/03/02 06:51:36;;;;;;;17.70;7.80;;;;;;;1.47;57.71;99830.64;79363;1295;3011836;-64
2023/03/02 06:54:06;;;;;;;16.20;7.50;;;;;;;1.57;57.93;99833.75;78149;1299;3054300;-65
2023/03/02 06:56:34;;;;;;;16.70;6.50;;;;;;;1.66;57.16;99836.02;79490;1300;3012843;-65
2023/03/02 06:59:03;;;;;;;12.00;4.70;;;;;;;1.63;54.96;99840.55;78969;1299;3011758;-65
2023/03/02 07:01:34;;;;;;;12.40;5.40;;;;;;;1.61;54.30;99840.42;79250;1299;3013661;-65
2023/03/02 07:04:02;;;;;;;11.60;4.90;;;;;;;1.70;54.21;99836.11;78108;1300;3052159;-65
2023/03/02 07:06:29;;;;;;;8.00;3.80;;;;;;;1.72;53.14;99832.28;79358;1296;3012877;-62
2023/03/02 07:08:56;;;;;;;11.50;4.10;;;;;;;1.77;52.79;99834.94;79144;1296;3013200;-63
2023/03/02 07:11:23;;;;;;;6.80;3.40;;;;;;;1.94;52.90;99829.46;78036;1300;3049338;-65
2023/03/02 07:13:50;;;;;;;8.80;4.00;;;;;;;2.02;52.81;99827.55;79330;1297;3012741;-64
2023/03/02 07:16:17;;;;;;;13.50;4.50;;;;;;;2.05;52.56;99829.58;79219;1297;3011593;-67
2023/03/02 07:18:44;;;;;;;9.40;3.70;;;;;;;1.95;52.50;99838.77;78029;1295;3028423;-64
2023/03/02 07:21:11;;;;;;;13.40;4.50;;;;;;;2.05;52.81;99828.20;79176;1299;3012461;-65
2023/03/02 07:23:38;;;;;;;14.60;3.90;;;;;;;2.04;52.73;99832.36;79312;1294;3012299;-64
2023/03/02 07:26:07;;;;;;;15.00;4.70;;;;;;;1.99;53.02;99833.14;78101;1300;3050781;-69
2023/03/02 07:28:38;;;;;;;12.90;4.90;;;;;;;2.01;52.81;99828.79;79423;1295;3012894;-63
2023/03/02 07:31:07;;;;;;;16.00;5.20;;;;;;;2.21;52.49;99826.67;78142;1298;3050270;-63
2023/03/02 07:33:41;;;;;;;12.70;4.70;;;;;;;2.47;52.16;99827.86;78952;1300;3013586;-63
2023/03/02 07:36:08;;;;;;;15.40;5.30;;;;;;;2.42;51.75;99837.64;79565;1294;3013333;-66
2023/03/02 07:38:35;;;;;;;13.90;5.90;;;;;;;2.23;51.42;99838.55;79541;1295;3012281;-65
2023/03/02 07:41:07;;;;;;;18.30;5.10;;;;;;;2.20;51.75;99833.41;78386;1298;3049418;-66
2023/03/02 07:43:35;;;;;;;15.60;5.40;;;;;;;2.14;51.92;99838.73;79577;1295;3011582;-65
2023/03/02 07:46:04;;;;;;;15.50;4.50;;;;;;;2.29;51.59;99827.89;78263;1298;3050883;-58
2023/03/02 07:48:32;;;;;;;16.30;5.40;;;;;;;2.28;51.27;99830.33;79624;1298;3013097;-66
2023/03/02 07:50:59;;;;;;;15.40;6.30;;;;;;;2.38;50.52;99839.97;79485;1296;3011614;-65
2023/03/02 07:53:28;;;;;;;13.90;5.80;;;;;;;2.34;50.49;99829.86;78272;1298;3052529;-65
2023/03/02 07:55:55;;;;;;;17.90;6.20;;;;;;;2.53;50.44;99818.04;79594;1299;3013720;-64
2023/03/02 07:58:23;;;;;;;13.50;5.60;;;;;;;2.54;49.37;99830.80;79334;1295;3012593;-65
2023/03/02 08:00:51;;;;;;;15.80;5.80;;;;;;;2.49;48.99;99816.73;78169;1300;3050484;-64
2023/03/02 08:03:17;;;;;;;13.40;5.30;;;;;;;2.66;48.17;99817.57;79287;1300;3013267;-67
2023/03/02 08:05:45;;;;;;;12.30;4.80;;;;;;;2.64;46.97;99827.66;79478;1300;3011741;-65
2023/03/02 08:08:13;;;;;;;10.40;4.30;;;;;;;2.78;47.08;99814.36;78184;1297;3053001;-65
2023/03/02 08:10:40;;;;;;;11.20;5.00;;;;;;;2.80;46.94;99815.33;79344;1297;3012946;-66
2023/03/02 08:13:07;;;;;;;13.10;6.40;;;;;;;3.02;46.94;99819.17;79369;1299;3011948;-65
2023/03/02 08:15:37;;;;;;;16.30;5.80;;;;;;;3.19;46.42;99809.23;78122;1299;3050517;-69
2023/03/02 08:18:04;;;;;;;15.10;6.30;;;;;;;3.13;46.13;99816.31;79529;1297;3012564;-69
2023/03/02 08:20:31;;;;;;;21.10;6.60;;;;;;;3.19;46.03;99812.19;79327;1299;3011784;-70
2023/03/02 08:23:00;;;;;;;18.30;6.80;;;;;;;3.20;45.80;99808.52;78188;1297;3052917;-64
2023/03/02 08:25:26;;;;;;;14.50;6.20;;;;;;;3.33;45.86;99803.16;79538;1297;3012652;-68
2023/03/02 08:27:53;;;;;;;11.30;3.90;;;;;;;3.35;45.62;99823.55;79664;1295;3012908;-66
2023/03/02 08:30:23;;;;;;;8.60;3.10;;;;;;;3.08;44.26;99811.75;78187;1299;3049126;-66
2023/03/02 08:32:50;;;;;;;12.60;3.10;;;;;;;3.17;44.25;99806.52;79490;1299;3014855;-67
2023/03/02 08:35:16;;;;;;;8.50;3.10;;;;;;;3.09;44.49;99804.27;79249;1300;3011559;-65
2023/03/02 08:37:45;;;;;;;14.30;2.40;;;;;;;3.13;44.41;99801.08;78208;1299;3052261;-63
2023/03/02 08:40:12;;;;;;;13.00;2.70;;;;;;;3.13;43.95;99802.46;79421;1298;3013147;-66
2023/03/02 08:42:38;;;;;;;6.20;2.10;;;;;;;3.13;44.15;99810.92;79402;1297;3011701;-64
2023/03/02 08:45:07;;;;;;;8.20;3.00;;;;;;;3.24;44.54;99810.66;78072;1299;3028810;-67
2023/03/02 08:47:35;;;;;;;9.70;2.50;;;;;;;3.31;44.39;99808.06;79696;1299;3013141;-66
2023/03/02 08:50:02;;;;;;;5.10;2.00;;;;;;;3.28;44.46;99810.56;79416;1299;3013609;-67
2023/03/02 08:52:33;;;;;;;9.20;2.20;;;;;;;3.30;44.51;99800.81;78193;1296;3051441;-68
2023/03/02 08:55:00;;;;;;;8.20;3.10;;;;;;;3.35;45.35;99798.09;79540;1299;3011834;-69
2023/03/02 08:57:29;;;;;;;8.20;3.20;;;;;;;3.50;45.20;99798.91;78924;1296;3011811;-67
2023/03/02 08:59:56;;;;;;;8.40;2.90;;;;;;;3.45;45.23;99801.11;79409;1300;3013119;-68
2023/03/02 09:02:23;;;;;;;9.40;3.80;;;;;;;3.60;45.21;99800.56;79374;1299;3011732;-70
2023/03/02 09:04:51;;;;;;;10.20;2.90;;;;;;;3.71;45.13;99796.63;78439;1300;3026461;-64
2023/03/02 09:07:18;;;;;;;8.50;3.10;;;;;;;3.71;45.07;99791.45;79421;1294;3013492;-65
2023/03/02 09:09:49;;;;;;;11.70;3.70;;;;;;;3.60;45.05;99793.27;80432;1294;3057639;-65
2023/03/02 09:12:17;;;;;;;8.40;3.10;;;;;;;3.61;45.19;99786.85;79970;1299;3011725;-64
2023/03/02 09:14:44;;;;;;;9.80;3.20;;;;;;;3.62;45.30;99783.52;79363;1294;3013497;-65
2023/03/02 09:17:14;;;;;;;9.30;3.20;;;;;;;3.67;45.22;99796.20;78230;1296;3051554;-66
2023/03/02 09:19:41;;;;;;;8.30;3.40;;;;;;;3.65;45.67;99790.91;79695;1300;3013347;-66
2023/03/02 09:22:10;;;;;;;9.90;2.90;;;;;;;3.80;45.66;99789.98;78942;1295;3013343;-65
2023/03/02 09:24:37;;;;;;;12.10;3.50;;;;;;;3.78;46.16;99790.73;79434;1295;3013492;-66
2023/03/02 09:27:04;;;;;;;9.40;3.20;;;;;;;3.85;46.24;99789.14;79528;1300;3011798;-65
2023/03/02 09:29:32;;;;;;;8.90;2.70;;;;;;;3.91;46.35;99789.33;78137;1295;3052319;-64
2023/03/02 09:31:59;;;;;;;7.40;2.80;;;;;;;3.95;46.39;99781.92;79470;1300;3013636;-65
2023/03/02 09:34:25;;;;;;;13.10;3.10;;;;;;;3.98;46.79;99787.23;79311;1300;3012210;-65
2023/03/02 09:36:53;;;;;;;9.90;3.40;;;;;;;4.32;46.48;99772.03;78186;1295;3067618;-64
2023/03/02 09:39:20;;;;;;;9.40;2.50;;;;;;;4.45;46.03;99775.61;79437;1294;3012520;-65
2023/03/02 09:42:18;;;;;;;14.20;3.30;;;;;;;4.44;45.88;99762.98;79546;1299;3012959;-66
2023/03/02 09:44:49;;;;;;;9.10;3.10;;;;;;;4.61;45.70;99767.68;78094;1294;3055138;-65
2023/03/02 09:47:21;;;;;;;7.30;3.30;;;;;;;4.69;45.44;99776.95;79390;1300;3011920;-65
2023/03/02 09:50:05;;;;;;;11.70;3.10;;;;;;;4.48;45.60;99771.36;78328;1297;3053508;-65
2023/03/02 09:52:55;;;;;;;5.50;2.50;;;;;;;4.27;46.10;99781.03;78246;1300;3053309;-66
2023/03/02 09:55:26;;;;;;;10.80;3.30;;;;;;;4.38;46.40;99777.05;78261;1298;3071020;-65
2023/03/02 09:58:03;;;;;;;8.80;3.30;;;;;;;4.31;46.37;99780.55;78373;1295;3051850;-65
2023/03/02 10:00:39;;;;;;;7.50;3.00;;;;;;;4.27;46.66;99783.77;79438;1295;3013472;-66
2023/03/02 10:03:15;;;;;;;12.50;3.80;;;;;;;4.36;46.75;99776.95;78502;1297;3048875;-65
2023/03/02 10:05:46;;;;;;;8.30;3.30;;;;;;;4.31;47.13;99779.50;78391;1295;3053508;-62
2023/03/02 10:08:33;;;;;;;10.20;3.40;;;;;;;4.27;47.17;99781.52;79333;1299;3011493;-64
2023/03/02 10:11:22;;;;;;;11.10;3.70;;;;;;;4.37;47.28;99760.61;78013;1300;3053531;-64
2023/03/02 10:13:51;;;;;;;16.80;4.80;;;;;;;4.63;46.93;99761.89;78667;1299;3052274;-64
2023/03/02 10:16:32;;;;;;;8.90;3.60;;;;;;;4.73;46.35;99762.25;79560;1294;3014269;-64
2023/03/02 10:19:07;;;;;;;7.10;2.40;;;;;;;4.74;46.47;99769.52;78205;1298;3057071;-65
2023/03/02 10:21:37;;;;;;;9.90;3.10;;;;;;;4.78;46.26;99762.98;78285;1297;3049289;-65
2023/03/02 10:24:10;;;;;;;9.50;2.40;;;;;;;5.08;46.12;99756.61;79435;1298;3013289;-64
2023/03/02 10:26:43;;;;;;;6.20;2.70;;;;;;;5.25;45.48;99765.27;78186;1297;3050577;-64
2023/03/02 10:29:36;;;;;;;6.70;1.90;;;;;;;4.92;45.97;99762.70;78309;1299;3054014;-64
2023/03/02 10:32:16;;;;;;;7.70;2.30;;;;;;;5.03;45.99;99758.15;78228;1299;3052614;-64
2023/03/02 10:34:49;;;;;;;7.20;2.30;;;;;;;5.05;45.89;99757.23;78001;1298;3068877;-65
2023/03/02 10:37:21;;;;;;;7.70;3.00;;;;;;;5.08;46.00;99758.52;79689;1295;3013703;-64
2023/03/02 10:39:52;;;;;;;6.80;2.90;;;;;;;5.24;45.71;99756.45;78217;1294;3049754;-64
2023/03/02 10:42:30;;;;;;;11.00;2.80;;;;;;;5.23;45.33;99763.91;79439;1295;3013637;-63
2023/03/02 10:45:07;;;;;;;9.40;3.00;;;;;;;5.47;45.31;99756.67;78282;1297;3054190;-65
2023/03/02 10:47:35;;;;;;;10.80;3.10;;;;;;;5.55;45.17;99764.23;78249;1297;3053669;-64
2023/03/02 10:50:02;;;;;;;15.00;3.00;;;;;;;5.48;45.47;99770.20;79422;1296;3018547;-64
2023/03/02 10:52:29;;;;;;;9.90;3.70;;;;;;;5.37;45.77;99764.67;79441;1297;3012877;-64
2023/03/02 10:55:02;;;;;;;17.60;3.30;;;;;;;5.49;45.70;99760.60;78118;1300;3029284;-64
2023/03/02 10:57:39;;;;;;;12.20;3.00;;;;;;;5.86;45.16;99753.90;79366;1297;3011578;-64
2023/03/02 11:00:24;;;;;;;11.90;3.60;;;;;;;5.87;44.63;99766.56;78244;1300;3050216;-64
2023/03/02 11:02:52;;;;;;;9.40;3.20;;;;;;;5.76;45.10;99754.80;78080;1299;3054025;-64
2023/03/02 11:05:22;;;;;;;11.30;3.20;;;;;;;5.92;45.16;99751.26;79477;1300;3013763;-63
2023/03/02 11:08:10;;;;;;;14.20;3.60;;;;;;;6.00;44.81;99762.27;78050;1298;3052740;-63
2023/03/02 11:10:49;;;;;;;10.80;3.50;;;;;;;6.05;44.96;99761.40;78350;1297;3057704;-64
2023/03/02 11:13:22;;;;;;;9.10;3.40;;;;;;;6.08;44.49;99752.78;78113;1297;3048874;-64
2023/03/02 11:15:50;;;;;;;13.40;3.70;;;;;;;6.05;44.92;99754.80;79295;1297;3013860;-64
2023/03/02 11:18:38;;;;;;;8.20;4.00;;;;;;;6.10;44.95;99766.77;78105;1299;3048974;-63
2023/03/02 11:21:15;;;;;;;12.30;3.70;;;;;;;6.19;45.10;99767.16;78185;1300;3051975;-63
2023/03/02 11:23:58;;;;;;;8.90;2.80;;;;;;;6.35;44.96;99760.11;78058;1300;3051987;-64
2023/03/02 11:26:38;;;;;;;;;;;;;;;6.51;44.55;99766.46;78088;1296;3069613;-64
2023/03/02 11:29:15;;;;;;;10.60;3.70;;;;;;;6.30;44.96;99759.61;78041;1300;3053503;-64